Portada
METAR-TAF:

METAR-TAF

Aeropuertos :

Evelyn Sharp Field

Ord, Nebraska, Estados Unidos

latitud: 41-37-27N, longitud: 098-57-09W, altitud: 631 m

Observación

El informe se hizo hace 1 hora y 2 minutos, a las 04:53 UTC
Viento 13 kt del sur-sureste con ráfagas de 23 kt
Temperatura 27°C
Humedad 62%
Presión 1007 hPa
Visibilidad: 16.1 km
Cielo despejado

METAR: KODX 070453Z AUTO 15013G23KT 10SM CLR 27/19 A2975 RMK AO2 SLP058 T02670189 $

Hora: 00:55 (05:55 UTC)


TAF: falta

Observaciones y pronósticos meteorológicos de más de 4000 aeropuertos (mensajes METAR y TAF).

Los puntos amarillos y rojos representan las estaciones disponibles.

Ponga el ratón en el punto deseado para ver el nombre de la estación.

Haga clic para ver las observaciones y los pronósticos meteorológicos.

Para cambiar el mapa : haga clic en los botones verdes con una cruz de color negro para hacer un zoom, en el botón verde con un guión para alejar o en las flechas verdes para mapas adyacentes.


METAR-TAF: